Time;durP1;ratioP1;P1;durP2;ratioP2;P2;SDS_P1;SDS_P2;PMS_P1;PMS_P2;Temp;Humidity;BMP_temperature;BMP_pressure;BME280_temperature;BME280_humidity;BME280_pressure;Samples;Min_cycle;Max_cycle;Signal;HPM_P1;HPM_P2
2023/05/10 00:00:07;;;;;;;0.70;0.60;;;16.70;99.90;;;;;;5074774;28;20249;-58
2023/05/10 00:02:33;;;;;;;1.53;0.80;;;16.70;99.90;;;;;;5074822;28;20228;-58
2023/05/10 00:05:00;;;;;;;1.93;0.70;;;16.70;99.90;;;;;;5075023;28;20216;-58
2023/05/10 00:07:27;;;;;;;1.67;0.90;;;16.80;99.90;;;;;;5074151;28;20651;-58
2023/05/10 00:09:54;;;;;;;1.40;1.00;;;16.80;99.90;;;;;;5074521;28;20215;-58
2023/05/10 00:12:22;;;;;;;1.27;1.00;;;16.80;99.90;;;;;;5074229;28;20742;-58
2023/05/10 00:14:48;;;;;;;1.40;0.77;;;16.80;99.90;;;;;;5074475;28;20201;-59
2023/05/10 00:17:15;;;;;;;0.60;0.60;;;16.80;99.90;;;;;;5074407;28;20263;-58
2023/05/10 00:19:42;;;;;;;1.55;0.82;;;16.80;99.90;;;;;;5074227;28;20205;-58
2023/05/10 00:22:10;;;;;;;1.42;0.73;;;16.80;99.90;;;;;;5074016;28;20574;-59
2023/05/10 00:24:36;;;;;;;1.27;0.77;;;16.80;99.90;;;;;;5074084;28;20266;-58
2023/05/10 00:27:04;;;;;;;0.80;0.70;;;16.70;99.90;;;;;;5074397;28;20282;-58
2023/05/10 00:29:33;;;;;;;1.08;0.82;;;16.70;99.90;;;;;;5074610;28;20204;-58
2023/05/10 00:32:00;;;;;;;1.42;0.90;;;16.70;99.90;;;;;;5074366;28;20644;-58
2023/05/10 00:34:27;;;;;;;2.60;0.70;;;16.80;99.90;;;;;;5074445;28;20204;-58
2023/05/10 00:36:53;;;;;;;0.90;0.60;;;16.80;99.90;;;;;;5074223;28;20753;-58
2023/05/10 00:39:20;;;;;;;2.13;0.40;;;16.60;99.90;;;;;;5074406;28;20205;-59
2023/05/10 00:41:47;;;;;;;0.73;0.30;;;16.50;99.90;;;;;;5074424;28;20205;-60
2023/05/10 00:44:14;;;;;;;2.80;0.50;;;16.40;99.90;;;;;;5074300;28;20220;-58
2023/05/10 00:46:42;;;;;;;4.10;0.50;;;16.30;99.90;;;;;;5074506;28;20220;-58
2023/05/10 00:49:09;;;;;;;0.45;0.28;;;16.30;99.90;;;;;;5074318;28;20265;-59
2023/05/10 00:51:36;;;;;;;0.30;0.20;;;16.30;99.90;;;;;;5074369;28;20250;-59
2023/05/10 00:54:03;;;;;;;1.77;0.30;;;16.30;99.90;;;;;;5074466;28;20201;-58
2023/05/10 00:56:30;;;;;;;0.20;0.10;;;16.30;99.90;;;;;;5073605;28;20215;-58
2023/05/10 00:58:57;;;;;;;1.13;0.20;;;16.30;99.90;;;;;;5073495;28;20232;-58
2023/05/10 01:01:24;;;;;;;0.08;0.00;;;16.30;99.90;;;;;;5073588;28;20196;-58
2023/05/10 01:03:52;;;;;;;0.30;0.20;;;16.30;99.90;;;;;;5073955;28;20205;-58
2023/05/10 01:06:18;;;;;;;0.10;0.10;;;16.20;99.90;;;;;;5073913;28;20205;-58
2023/05/10 01:08:45;;;;;;;0.40;0.13;;;16.30;99.90;;;;;;5073573;28;20225;-58
2023/05/10 01:11:12;;;;;;;0.50;0.20;;;16.20;99.90;;;;;;5073570;28;20585;-58
2023/05/10 01:13:42;;;;;;;1.35;0.30;;;16.30;99.90;;;;;;5073504;28;20217;-59
2023/05/10 01:16:08;;;;;;;0.47;0.20;;;16.30;99.90;;;;;;5073954;28;20212;-59
2023/05/10 01:18:39;;;;;;;2.90;0.30;;;16.30;99.90;;;;;;5073649;28;20234;-58
2023/05/10 01:21:19;;;;;;;0.20;0.10;;;16.30;99.90;;;;;;5073689;28;20197;-59
2023/05/10 01:24:20;;;;;;;3.78;0.35;;;16.20;99.90;;;;;;5073678;28;20204;-58
2023/05/10 01:27:13;;;;;;;1.60;0.20;;;16.20;99.90;;;;;;5073973;28;20208;-58
2023/05/10 01:30:10;;;;;;;1.17;0.20;;;16.20;99.90;;;;;;5073850;28;20209;-59
2023/05/10 01:32:46;;;;;;;0.60;0.25;;;16.20;99.90;;;;;;5074243;28;20232;-59
2023/05/10 01:35:19;;;;;;;0.50;0.20;;;16.30;99.90;;;;;;5073235;28;20565;-59
2023/05/10 01:37:53;;;;;;;0.95;0.20;;;16.20;99.90;;;;;;5073178;28;20735;-59
2023/05/10 01:40:27;;;;;;;0.30;0.30;;;16.10;99.90;;;;;;5072612;28;20733;-59
2023/05/10 01:43:00;;;;;;;0.30;0.30;;;16.10;99.90;;;;;;5073182;28;20216;-59
2023/05/10 01:45:32;;;;;;;0.30;0.30;;;16.10;99.90;;;;;;5075016;28;20215;-59
2023/05/10 01:48:07;;;;;;;0.35;0.35;;;16.00;99.90;;;;;;5115841;22;20499;-64
2023/05/10 01:50:36;;;;;;;0.53;0.40;;;15.90;99.90;;;;;;5107373;28;20195;-64
2023/05/10 01:53:05;;;;;;;1.45;0.57;;;15.90;99.90;;;;;;5115689;28;20228;-64
2023/05/10 01:55:36;;;;;;;0.55;0.50;;;15.90;99.90;;;;;;5116093;28;20292;-64
2023/05/10 01:58:06;;;;;;;1.87;1.30;;;15.90;99.90;;;;;;5115652;28;20228;-64
2023/05/10 02:00:35;;;;;;;1.63;0.50;;;15.90;99.90;;;;;;5115857;28;20212;-64
2023/05/10 02:03:08;;;;;;;0.90;0.90;;;15.90;99.90;;;;;;5116550;28;20656;-65
2023/05/10 02:05:36;;;;;;;0.47;0.47;;;15.80;99.90;;;;;;5115702;28;20207;-63
2023/05/10 02:08:06;;;;;;;0.60;0.60;;;16.00;99.90;;;;;;5115265;28;20866;-64
2023/05/10 02:10:35;;;;;;;0.67;0.67;;;15.90;99.90;;;;;;5115969;28;20231;-64
2023/05/10 02:13:03;;;;;;;1.03;0.73;;;15.80;99.90;;;;;;5115508;28;20223;-64
2023/05/10 02:15:31;;;;;;;0.60;0.60;;;15.80;99.90;;;;;;5115632;28;20207;-63
2023/05/10 02:18:01;;;;;;;0.87;0.70;;;15.80;99.90;;;;;;5115748;28;20620;-64
2023/05/10 02:20:32;;;;;;;0.70;0.70;;;15.90;99.90;;;;;;5115807;28;20298;-64
2023/05/10 02:22:59;;;;;;;0.83;0.70;;;15.90;99.90;;;;;;5115654;28;20577;-63
2023/05/10 02:25:27;;;;;;;0.60;0.60;;;15.90;99.90;;;;;;5115485;28;20552;-64
2023/05/10 02:27:56;;;;;;;1.20;0.90;;;15.90;99.90;;;;;;5115369;28;20227;-63
2023/05/10 02:30:24;;;;;;;1.17;1.10;;;15.90;99.90;;;;;;5115499;27;20727;-63
2023/05/10 02:32:52;;;;;;;1.07;1.00;;;15.90;99.90;;;;;;5115173;28;20219;-64
2023/05/10 02:35:20;;;;;;;2.20;1.10;;;15.80;99.90;;;;;;5115608;28;20203;-64
2023/05/10 02:37:49;;;;;;;2.20;1.10;;;15.70;99.90;;;;;;5115482;28;20223;-64
2023/05/10 02:40:17;;;;;;;1.13;1.13;;;15.70;99.90;;;;;;5115235;28;20200;-64
2023/05/10 02:42:48;;;;;;;1.10;1.00;;;15.60;99.90;;;;;;5114879;28;20544;-63
2023/05/10 02:45:18;;;;;;;2.53;0.90;;;15.50;99.90;;;;;;5115482;28;20222;-64
2023/05/10 02:47:45;;;;;;;1.27;1.17;;;15.50;99.90;;;;;;5114724;28;20269;-64
2023/05/10 02:50:11;;;;;;;1.40;0.70;;;15.50;99.90;;;;;;5114881;28;20211;-64
2023/05/10 02:52:42;;;;;;;1.10;1.00;;;15.50;99.90;;;;;;5115033;28;20231;-64
2023/05/10 02:55:13;;;;;;;2.17;1.97;;;15.50;99.90;;;;;;5114995;28;20235;-64
2023/05/10 02:57:44;;;;;;;0.97;0.90;;;15.50;99.90;;;;;;5114684;28;20262;-64
2023/05/10 03:00:11;;;;;;;0.97;0.87;;;15.40;99.90;;;;;;5114824;28;20210;-64
2023/05/10 03:02:38;;;;;;;1.23;0.77;;;15.40;99.90;;;;;;5114929;28;20210;-64
2023/05/10 03:05:05;;;;;;;1.43;0.80;;;15.50;99.90;;;;;;5115007;28;20211;-63
2023/05/10 03:07:33;;;;;;;0.80;0.50;;;15.50;99.90;;;;;;5114917;28;20238;-64
2023/05/10 03:10:00;;;;;;;1.03;0.70;;;15.50;99.90;;;;;;5114724;28;20301;-64
2023/05/10 03:12:39;;;;;;;0.80;0.80;;;15.60;99.90;;;;;;5115294;28;20280;-64
2023/05/10 03:15:12;;;;;;;1.73;0.67;;;15.60;99.90;;;;;;5114975;28;20207;-63
2023/05/10 03:17:46;;;;;;;2.50;0.87;;;15.60;99.90;;;;;;5114744;28;20595;-64
2023/05/10 03:20:21;;;;;;;3.53;1.10;;;15.60;99.90;;;;;;5115050;28;20226;-64
2023/05/10 03:22:52;;;;;;;0.87;0.60;;;15.50;99.90;;;;;;5114776;28;20214;-64
2023/05/10 03:25:21;;;;;;;2.83;0.80;;;15.50;99.90;;;;;;5114420;28;20590;-64
2023/05/10 03:27:50;;;;;;;2.27;0.70;;;15.50;99.90;;;;;;5114002;28;20725;-64
2023/05/10 03:30:17;;;;;;;0.73;0.73;;;15.60;99.90;;;;;;5113881;27;20245;-64
2023/05/10 03:32:44;;;;;;;1.10;0.90;;;15.60;99.90;;;;;;5113790;28;20219;-64
2023/05/10 03:35:12;;;;;;;1.67;0.83;;;15.60;99.90;;;;;;5113797;28;20211;-64
2023/05/10 03:37:40;;;;;;;1.37;0.70;;;15.70;99.90;;;;;;5113921;28;20252;-64
2023/05/10 03:40:08;;;;;;;1.93;1.00;;;15.60;99.90;;;;;;5113799;28;20207;-64
2023/05/10 03:42:34;;;;;;;1.33;0.90;;;15.60;99.90;;;;;;5114026;28;20204;-63
2023/05/10 03:45:03;;;;;;;1.20;0.60;;;15.70;99.90;;;;;;5113820;28;20207;-64
2023/05/10 03:47:30;;;;;;;0.70;0.70;;;15.70;99.90;;;;;;5113300;28;20318;-63
2023/05/10 03:49:57;;;;;;;1.20;1.00;;;15.80;99.90;;;;;;5113435;28;20204;-63
2023/05/10 03:52:23;;;;;;;0.80;0.80;;;15.80;99.90;;;;;;5113618;27;20335;-63
2023/05/10 03:54:50;;;;;;;1.43;0.90;;;15.80;99.90;;;;;;5113464;28;20556;-63
2023/05/10 03:57:17;;;;;;;3.87;1.00;;;15.80;99.90;;;;;;5113297;28;20211;-64
2023/05/10 03:59:43;;;;;;;1.17;0.67;;;15.80;99.90;;;;;;5113026;28;20199;-64
2023/05/10 04:02:11;;;;;;;1.90;1.70;;;15.80;99.90;;;;;;5113172;28;20222;-64
2023/05/10 04:04:38;;;;;;;3.80;1.30;;;15.80;99.90;;;;;;5113435;28;20221;-64
2023/05/10 04:07:05;;;;;;;2.33;1.60;;;15.90;99.90;;;;;;5112720;28;20203;-64
2023/05/10 04:09:32;;;;;;;2.43;1.40;;;15.90;99.90;;;;;;5112510;28;20578;-64
2023/05/10 04:11:59;;;;;;;1.30;1.00;;;15.90;99.90;;;;;;5112953;28;20255;-64
2023/05/10 04:14:26;;;;;;;1.07;0.93;;;15.90;99.90;;;;;;5113098;28;20257;-64
2023/05/10 04:16:53;;;;;;;1.93;1.03;;;15.90;99.90;;;;;;5112995;28;20203;-64
2023/05/10 04:19:21;;;;;;;1.90;1.20;;;15.90;99.90;;;;;;5113105;28;20238;-64
2023/05/10 04:21:48;;;;;;;2.13;1.20;;;15.90;99.90;;;;;;5113625;28;20359;-64
2023/05/10 04:24:14;;;;;;;1.27;1.17;;;16.00;99.90;;;;;;5112979;28;20204;-63
2023/05/10 04:26:41;;;;;;;1.93;1.10;;;16.00;99.90;;;;;;5113258;28;20203;-64
2023/05/10 04:29:08;;;;;;;2.30;1.10;;;16.10;99.90;;;;;;5112686;28;20223;-64
2023/05/10 04:31:36;;;;;;;2.45;1.02;;;16.10;99.90;;;;;;5113398;28;20601;-63
2023/05/10 04:34:02;;;;;;;1.67;1.37;;;16.10;99.90;;;;;;5113072;28;20239;-63
2023/05/10 04:36:32;;;;;;;3.37;2.00;;;16.10;99.90;;;;;;5113436;28;20203;-63
2023/05/10 04:38:58;;;;;;;3.42;1.25;;;16.20;99.90;;;;;;5114426;28;20305;-63
2023/05/10 04:41:25;;;;;;;2.97;1.30;;;16.20;99.90;;;;;;5115425;28;20709;-64
2023/05/10 04:43:52;;;;;;;3.00;1.70;;;16.30;99.90;;;;;;5115125;28;20207;-64
2023/05/10 04:46:19;;;;;;;2.30;1.67;;;16.30;99.90;;;;;;5115591;28;20204;-64
2023/05/10 04:48:45;;;;;;;1.60;1.50;;;16.40;99.90;;;;;;5114760;28;20239;-63
2023/05/10 04:51:12;;;;;;;1.95;1.60;;;16.40;99.90;;;;;;5112891;28;20257;-64
2023/05/10 04:53:40;;;;;;;1.63;1.33;;;16.50;99.90;;;;;;5112420;28;20706;-63
2023/05/10 04:56:07;;;;;;;2.33;1.80;;;16.50;99.90;;;;;;5112339;27;20249;-63
2023/05/10 04:58:34;;;;;;;1.50;1.40;;;16.50;99.90;;;;;;5112226;28;20779;-63
2023/05/10 05:01:07;;;;;;;1.40;1.30;;;16.50;99.90;;;;;;5112345;28;20671;-64
2023/05/10 05:03:33;;;;;;;3.05;1.42;;;16.40;99.90;;;;;;5112710;28;20223;-64
2023/05/10 05:06:00;;;;;;;3.70;1.30;;;16.40;99.90;;;;;;5112237;28;20203;-64
2023/05/10 05:08:27;;;;;;;3.47;1.30;;;16.50;99.90;;;;;;5111605;28;20581;-63
2023/05/10 05:10:55;;;;;;;1.75;1.30;;;16.50;99.90;;;;;;5111962;28;20688;-64
2023/05/10 05:13:22;;;;;;;4.97;1.50;;;16.60;99.90;;;;;;5111987;28;20223;-65
2023/05/10 05:15:49;;;;;;;1.60;1.20;;;16.60;99.90;;;;;;5112206;28;20698;-64
2023/05/10 05:18:15;;;;;;;1.30;1.20;;;16.70;99.90;;;;;;5111934;28;20599;-64
2023/05/10 05:20:42;;;;;;;2.55;1.20;;;16.90;99.90;;;;;;5111256;28;20204;-64
2023/05/10 05:23:09;;;;;;;1.77;1.00;;;17.00;99.90;;;;;;5112085;28;20204;-64
2023/05/10 05:25:36;;;;;;;1.88;1.30;;;17.10;99.90;;;;;;5112525;28;20593;-63
2023/05/10 05:28:04;;;;;;;3.95;1.20;;;17.30;99.90;;;;;;5112498;28;20575;-64
2023/05/10 05:30:31;;;;;;;1.45;1.10;;;17.30;99.90;;;;;;5111948;28;20210;-66
2023/05/10 05:32:58;;;;;;;2.30;1.63;;;17.50;99.90;;;;;;5112064;28;20318;-64
2023/05/10 05:35:25;;;;;;;4.80;1.25;;;17.60;99.90;;;;;;5112071;28;20208;-64
2023/05/10 05:37:51;;;;;;;1.20;1.10;;;17.80;99.90;;;;;;5112623;28;20547;-64
2023/05/10 05:40:18;;;;;;;1.65;1.23;;;17.90;99.90;;;;;;5113215;28;20282;-63
2023/05/10 05:42:45;;;;;;;2.35;1.30;;;17.90;99.90;;;;;;5113634;28;20207;-64
2023/05/10 05:45:13;;;;;;;1.45;1.17;;;18.00;99.90;;;;;;5112984;28;20231;-64
2023/05/10 05:47:40;;;;;;;2.25;1.48;;;17.90;99.90;;;;;;5112264;28;20231;-65
2023/05/10 05:50:08;;;;;;;3.35;1.50;;;17.90;99.90;;;;;;5112049;28;20206;-63
2023/05/10 05:52:35;;;;;;;1.20;1.08;;;17.80;99.90;;;;;;5111705;28;20227;-64
2023/05/10 05:55:02;;;;;;;1.45;1.20;;;18.00;99.90;;;;;;5112062;28;20231;-64
2023/05/10 05:57:29;;;;;;;2.75;1.60;;;18.00;99.90;;;;;;5111877;28;20251;-63
2023/05/10 05:59:55;;;;;;;3.03;1.30;;;18.00;99.90;;;;;;5111578;28;20644;-63
2023/05/10 06:02:23;;;;;;;1.88;1.30;;;18.20;99.90;;;;;;5111103;28;20659;-64
2023/05/10 06:04:51;;;;;;;1.73;1.33;;;18.30;99.90;;;;;;5111324;28;20675;-64
2023/05/10 06:07:17;;;;;;;2.53;1.45;;;18.40;99.90;;;;;;5111409;28;20200;-62
2023/05/10 06:09:44;;;;;;;3.10;1.20;;;18.50;99.90;;;;;;5102919;28;20212;-61
2023/05/10 06:12:11;;;;;;;5.38;1.60;;;18.20;99.90;;;;;;5089378;28;20204;-61
2023/05/10 06:14:38;;;;;;;2.55;2.00;;;18.10;99.90;;;;;;5090180;28;20211;-59
2023/05/10 06:17:05;;;;;;;4.05;2.40;;;18.20;99.90;;;;;;5090361;28;20200;-62
2023/05/10 06:19:33;;;;;;;5.40;1.90;;;18.20;99.90;;;;;;5089359;28;20709;-62
2023/05/10 06:21:59;;;;;;;2.60;2.40;;;18.30;99.90;;;;;;5090200;28;20342;-61
2023/05/10 06:24:26;;;;;;;1.75;1.63;;;18.30;99.90;;;;;;5090355;28;20208;-62
2023/05/10 06:26:53;;;;;;;3.22;2.15;;;18.40;99.90;;;;;;5090452;28;20208;-61
2023/05/10 06:29:20;;;;;;;1.63;1.48;;;18.30;99.90;;;;;;5090401;28;20231;-62
2023/05/10 06:31:47;;;;;;;1.70;1.55;;;18.20;99.90;;;;;;5092211;28;20714;-61
2023/05/10 06:34:14;;;;;;;1.90;1.70;;;18.20;99.90;;;;;;5093544;28;20230;-62
2023/05/10 06:36:42;;;;;;;1.90;1.60;;;18.30;99.90;;;;;;5093904;28;20632;-62
2023/05/10 06:39:09;;;;;;;3.97;2.15;;;18.40;99.90;;;;;;5093513;28;20331;-61
2023/05/10 06:41:36;;;;;;;6.72;2.20;;;18.40;99.90;;;;;;5094129;28;20345;-61
2023/05/10 06:44:03;;;;;;;2.13;1.70;;;18.40;99.90;;;;;;5096805;28;20208;-62
2023/05/10 06:46:30;;;;;;;1.38;1.27;;;18.60;99.90;;;;;;5096269;28;20222;-61
2023/05/10 06:48:56;;;;;;;3.88;1.67;;;18.70;99.90;;;;;;5094134;28;20232;-63
2023/05/10 06:51:23;;;;;;;2.63;1.60;;;18.90;99.90;;;;;;5094733;28;20200;-64
2023/05/10 06:53:51;;;;;;;1.73;1.48;;;19.00;99.90;;;;;;5094541;28;20674;-62
2023/05/10 06:56:18;;;;;;;4.43;1.70;;;19.10;99.90;;;;;;5094666;28;20234;-61
2023/05/10 06:58:45;;;;;;;1.98;1.40;;;19.00;99.90;;;;;;5093093;28;20231;-61
2023/05/10 07:01:12;;;;;;;2.55;1.45;;;19.10;99.90;;;;;;5094099;28;20208;-65
2023/05/10 07:03:38;;;;;;;2.92;1.50;;;19.10;99.90;;;;;;5094325;28;20232;-65
2023/05/10 07:06:07;;;;;;;1.40;1.30;;;19.10;99.90;;;;;;5094751;28;20212;-66
2023/05/10 07:08:34;;;;;;;1.77;1.33;;;19.20;99.90;;;;;;5093541;28;20224;-66
2023/05/10 07:11:03;;;;;;;2.45;1.50;;;19.60;99.90;;;;;;5093466;28;20204;-66
2023/05/10 07:13:31;;;;;;;1.67;1.30;;;19.90;99.90;;;;;;5093038;28;20323;-66
2023/05/10 07:15:58;;;;;;;2.20;1.40;;;20.20;99.90;;;;;;5092909;28;20282;-67
2023/05/10 07:18:25;;;;;;;3.03;1.52;;;20.40;99.90;;;;;;5093003;28;20220;-66
2023/05/10 07:20:51;;;;;;;3.75;1.33;;;20.60;99.90;;;;;;5092183;28;20204;-66
2023/05/10 07:23:18;;;;;;;3.53;1.40;;;20.60;99.90;;;;;;5093339;28;20200;-66
2023/05/10 07:25:46;;;;;;;2.08;1.15;;;20.60;99.90;;;;;;5092659;28;20257;-67
2023/05/10 07:28:14;;;;;;;2.50;1.10;;;20.60;99.90;;;;;;5092590;28;20220;-67
2023/05/10 07:30:41;;;;;;;1.60;1.00;;;20.70;99.90;;;;;;5092637;28;20204;-67
2023/05/10 07:33:08;;;;;;;1.70;1.13;;;20.70;99.90;;;;;;5092575;28;20220;-66
2023/05/10 07:35:35;;;;;;;0.90;0.90;;;20.60;99.90;;;;;;5093472;28;20262;-66
2023/05/10 07:38:01;;;;;;;2.10;1.10;;;20.60;99.90;;;;;;5092893;28;20228;-65
2023/05/10 07:40:29;;;;;;;1.20;0.90;;;20.40;99.90;;;;;;5092933;28;20578;-64
2023/05/10 07:42:56;;;;;;;3.88;1.20;;;20.30;99.90;;;;;;5091933;28;20219;-65
2023/05/10 07:45:24;;;;;;;4.32;1.02;;;20.20;99.90;;;;;;5092556;28;20207;-66
2023/05/10 07:47:51;;;;;;;2.30;1.13;;;19.90;99.90;;;;;;5113476;22;20229;-57
2023/05/10 07:50:18;;;;;;;2.88;1.27;;;19.70;99.90;;;;;;5065947;28;20371;-61
2023/05/10 07:52:44;;;;;;;1.70;1.00;;;19.70;99.90;;;;;;5072646;28;20205;-60
2023/05/10 07:55:11;;;;;;;5.75;1.90;;;19.80;99.90;;;;;;5072119;28;20231;-58
2023/05/10 07:57:38;;;;;;;1.60;1.30;;;19.80;99.90;;;;;;5071991;28;20590;-57
2023/05/10 08:00:06;;;;;;;4.47;2.47;;;19.60;99.90;;;;;;5072729;28;20209;-58
2023/05/10 08:02:36;;;;;;;2.03;1.10;;;19.70;99.90;;;;;;5072549;28;20201;-58
2023/05/10 08:05:03;;;;;;;1.95;1.00;;;19.50;99.90;;;;;;5072400;28;20212;-59
2023/05/10 08:07:29;;;;;;;4.90;0.90;;;19.40;99.90;;;;;;5072639;28;20213;-58
2023/05/10 08:09:56;;;;;;;1.92;1.63;;;19.30;99.90;;;;;;5071462;28;20262;-60
2023/05/10 08:12:23;;;;;;;1.02;0.80;;;19.40;99.90;;;;;;5072077;28;20220;-58
2023/05/10 08:14:49;;;;;;;2.38;1.92;;;19.40;99.90;;;;;;5072123;28;20221;-58
2023/05/10 08:17:16;;;;;;;0.47;0.38;;;19.40;99.90;;;;;;5071693;28;20584;-58
2023/05/10 08:19:44;;;;;;;3.30;0.50;;;19.40;99.90;;;;;;5071626;28;20236;-59
2023/05/10 08:22:11;;;;;;;1.77;0.60;;;19.20;99.90;;;;;;5071719;28;20209;-59
2023/05/10 08:24:38;;;;;;;1.15;0.82;;;19.10;99.90;;;;;;5071683;28;20236;-58
2023/05/10 08:27:05;;;;;;;2.63;0.80;;;19.00;99.90;;;;;;5071508;28;20209;-57
2023/05/10 08:29:32;;;;;;;0.82;0.75;;;19.00;99.90;;;;;;5071989;28;20229;-58
2023/05/10 08:32:00;;;;;;;1.55;0.60;;;18.90;99.90;;;;;;5071696;28;20209;-58
2023/05/10 08:34:27;;;;;;;2.00;0.80;;;18.90;99.90;;;;;;5071758;28;20224;-63
2023/05/10 08:36:55;;;;;;;2.63;0.70;;;18.90;99.90;;;;;;5072535;28;20323;-59
2023/05/10 08:39:23;;;;;;;0.93;0.70;;;18.90;99.90;;;;;;5072263;28;20221;-59
2023/05/10 08:41:53;;;;;;;1.02;0.70;;;18.80;99.90;;;;;;5072629;28;20205;-58
2023/05/10 08:44:21;;;;;;;2.08;0.73;;;18.90;99.90;;;;;;5072911;28;20204;-58
2023/05/10 08:46:51;;;;;;;2.28;0.90;;;19.00;99.90;;;;;;5071828;28;20819;-64
2023/05/10 08:49:20;;;;;;;1.48;0.75;;;19.10;99.90;;;;;;5051874;28;20287;-64
2023/05/10 08:51:53;;;;;;;0.90;0.60;;;19.40;99.90;;;;;;5052979;28;20695;-61
2023/05/10 08:54:21;;;;;;;1.35;0.30;;;19.60;99.90;;;;;;5052289;28;20283;-57
2023/05/10 08:56:48;;;;;;;3.05;0.77;;;19.80;99.90;;;;;;5050796;28;20665;-59
2023/05/10 08:59:15;;;;;;;0.65;0.50;;;20.10;99.90;;;;;;5031343;28;20661;-59
2023/05/10 09:01:45;;;;;;;0.95;0.70;;;20.20;99.90;;;;;;5032505;28;20319;-58
2023/05/10 09:04:13;;;;;;;1.65;0.43;;;20.40;99.90;;;;;;5031729;28;20202;-60
2023/05/10 09:06:40;;;;;;;5.53;0.70;;;20.60;99.90;;;;;;5033152;28;20202;-60
2023/05/10 09:09:07;;;;;;;1.20;0.40;;;20.80;99.90;;;;;;5033849;28;20285;-59
2023/05/10 09:11:35;;;;;;;1.73;0.43;;;21.10;99.90;;;;;;5032976;28;20214;-58
2023/05/10 09:14:03;;;;;;;1.38;0.80;;;21.30;99.90;;;;;;5033573;28;20222;-59
2023/05/10 09:16:30;;;;;;;7.00;5.25;;;21.60;99.90;;;;;;5034008;28;20202;-60
2023/05/10 09:18:57;;;;;;;2.28;0.93;;;21.90;99.90;;;;;;5034062;28;20237;-61
2023/05/10 09:21:24;;;;;;;1.27;0.40;;;22.20;99.90;;;;;;5033970;28;20206;-60
2023/05/10 09:23:53;;;;;;;0.95;0.32;;;22.20;99.90;;;;;;5034040;28;20206;-60
2023/05/10 09:26:23;;;;;;;3.45;2.65;;;22.40;99.90;;;;;;5033330;28;20207;-61
2023/05/10 09:28:57;;;;;;;1.85;0.50;;;22.50;99.90;;;;;;5032985;28;20226;-61
2023/05/10 09:31:25;;;;;;;2.03;0.70;;;22.60;99.90;;;;;;5032093;28;20205;-62
2023/05/10 09:33:54;;;;;;;0.88;0.35;;;22.90;99.90;;;;;;5034073;28;20233;-63
2023/05/10 09:36:20;;;;;;;0.65;0.32;;;23.00;99.90;;;;;;5033046;28;20213;-60
2023/05/10 09:38:48;;;;;;;0.70;0.50;;;23.20;99.90;;;;;;5032648;28;20235;-59
2023/05/10 09:41:20;;;;;;;2.78;0.52;;;23.40;99.90;;;;;;5033351;28;20237;-61
2023/05/10 09:43:46;;;;;;;0.43;0.30;;;23.40;99.90;;;;;;5033226;28;20293;-59
2023/05/10 09:46:15;;;;;;;1.88;0.63;;;23.50;99.90;;;;;;5033114;28;20223;-59
2023/05/10 09:48:44;;;;;;;2.95;1.08;;;23.80;99.90;;;;;;5032999;28;20242;-60
2023/05/10 09:51:11;;;;;;;2.50;0.90;;;23.60;99.90;;;;;;5032658;28;20230;-59
2023/05/10 09:53:38;;;;;;;2.38;0.40;;;23.60;99.90;;;;;;5032820;28;20221;-60
2023/05/10 09:56:05;;;;;;;1.33;0.30;;;23.60;99.90;;;;;;5032872;28;20244;-59
2023/05/10 09:58:32;;;;;;;0.93;0.50;;;23.50;99.90;;;;;;5032916;28;20229;-59
2023/05/10 10:00:59;;;;;;;1.98;0.52;;;23.40;99.90;;;;;;5032237;28;20702;-59
2023/05/10 10:03:27;;;;;;;1.63;0.35;;;23.20;99.90;;;;;;5032160;28;20673;-59
2023/05/10 10:05:55;;;;;;;1.25;0.47;;;23.30;99.90;;;;;;5033522;28;20210;-59
2023/05/10 10:08:23;;;;;;;0.55;0.22;;;23.30;99.90;;;;;;5036248;28;20280;-60
2023/05/10 10:10:50;;;;;;;0.60;0.50;;;23.10;99.90;;;;;;5036010;28;20206;-59
2023/05/10 10:13:17;;;;;;;2.47;0.80;;;23.40;99.90;;;;;;5036294;28;20694;-59
2023/05/10 10:15:45;;;;;;;1.20;0.70;;;23.70;99.90;;;;;;5036255;28;20230;-60
2023/05/10 10:18:15;;;;;;;1.15;0.55;;;23.70;99.90;;;;;;5036517;28;20272;-59
2023/05/10 10:20:43;;;;;;;6.00;1.40;;;23.80;99.90;;;;;;5035754;28;20639;-59
2023/05/10 10:23:10;;;;;;;0.52;0.40;;;24.10;99.90;;;;;;5036555;28;20210;-60
2023/05/10 10:25:38;;;;;;;3.33;0.63;;;24.50;99.90;;;;;;5035616;28;20734;-60
2023/05/10 10:28:16;;;;;;;0.40;0.35;;;24.40;99.90;;;;;;5035891;28;20234;-60
2023/05/10 10:30:44;;;;;;;1.45;0.20;;;23.80;99.90;;;;;;5035860;28;20420;-59
2023/05/10 10:33:37;;;;;;;1.23;0.75;;;23.10;99.90;;;;;;5035632;28;20233;-60
2023/05/10 10:36:06;;;;;;;1.85;0.55;;;22.70;99.90;;;;;;5035427;28;20203;-60
2023/05/10 10:38:59;;;;;;;1.08;0.52;;;22.50;99.90;;;;;;5036056;28;20714;-59
2023/05/10 10:41:31;;;;;;;2.00;0.50;;;22.40;99.90;;;;;;5035832;28;20540;-59
2023/05/10 10:44:26;;;;;;;1.23;0.52;;;22.30;99.90;;;;;;5035769;28;20198;-59
2023/05/10 10:47:29;;;;;;;1.98;0.40;;;22.10;99.90;;;;;;5038159;28;20214;-59
2023/05/10 10:50:07;;;;;;;1.55;0.68;;;22.00;99.90;;;;;;4974895;28;20331;-61
2023/05/10 10:52:36;;;;;;;0.40;0.30;;;21.90;99.90;;;;;;5028238;28;20210;-61
2023/05/10 10:55:06;;;;;;;2.67;0.80;;;21.70;99.90;;;;;;5035240;28;20233;-59
2023/05/10 10:57:34;;;;;;;1.25;0.70;;;21.60;99.90;;;;;;5035496;28;20241;-60
2023/05/10 11:00:28;;;;;;;0.70;0.50;;;21.50;99.90;;;;;;5035340;28;20252;-59
2023/05/10 11:02:58;;;;;;;0.73;0.52;;;21.60;99.90;;;;;;5035181;28;20210;-60
2023/05/10 11:05:42;;;;;;;0.98;0.68;;;21.70;99.90;;;;;;5035303;28;20722;-59
2023/05/10 11:08:18;;;;;;;2.20;0.60;;;21.70;99.90;;;;;;5034176;28;20305;-60
2023/05/10 11:10:54;;;;;;;2.47;1.35;;;21.90;99.90;;;;;;5034987;28;20231;-60
2023/05/10 11:13:31;;;;;;;1.70;0.85;;;22.10;99.90;;;;;;5034849;28;20206;-60
2023/05/10 11:15:59;;;;;;;0.80;0.52;;;22.30;99.90;;;;;;5034964;28;20222;-60
2023/05/10 11:18:28;;;;;;;1.95;0.57;;;22.60;99.90;;;;;;5034425;28;20240;-62
2023/05/10 11:20:58;;;;;;;2.80;0.70;;;22.90;99.90;;;;;;5035028;28;20265;-59
2023/05/10 11:23:31;;;;;;;1.88;0.63;;;23.10;99.90;;;;;;5034926;28;20269;-60
2023/05/10 11:25:58;;;;;;;0.98;0.60;;;23.40;99.90;;;;;;5034723;28;20243;-60
2023/05/10 11:28:26;;;;;;;0.73;0.45;;;23.60;99.90;;;;;;5035438;28;20233;-60
2023/05/10 11:30:53;;;;;;;1.52;0.73;;;23.80;99.90;;;;;;5034553;28;20686;-59
2023/05/10 11:33:21;;;;;;;2.28;1.17;;;23.70;99.90;;;;;;5034988;28;20213;-59
2023/05/10 11:35:47;;;;;;;1.60;0.98;;;23.60;99.90;;;;;;5034777;28;20594;-60
2023/05/10 11:38:14;;;;;;;1.08;0.50;;;23.50;99.90;;;;;;5034737;28;20799;-60
2023/05/10 11:40:43;;;;;;;2.63;0.55;;;23.50;99.90;;;;;;5034622;28;20214;-59
2023/05/10 11:43:11;;;;;;;1.67;0.40;;;23.50;99.90;;;;;;5034437;28;20206;-60
2023/05/10 11:45:38;;;;;;;1.40;0.40;;;23.60;99.90;;;;;;5034201;28;20238;-60
2023/05/10 11:48:04;;;;;;;2.15;1.08;;;23.80;99.90;;;;;;5034250;28;20666;-60
2023/05/10 11:50:31;;;;;;;1.77;0.70;;;23.80;99.90;;;;;;5033903;28;20689;-60
2023/05/10 11:52:58;;;;;;;1.17;0.60;;;23.60;99.90;;;;;;5034574;28;20210;-60
2023/05/10 11:55:25;;;;;;;2.42;0.75;;;23.60;99.90;;;;;;5034243;28;20645;-61
2023/05/10 11:58:02;;;;;;;2.53;0.60;;;23.60;99.70;;;;;;5034286;28;20597;-60
2023/05/10 12:00:29;;;;;;;0.82;0.30;;;23.50;99.90;;;;;;5034024;28;20260;-60
2023/05/10 12:02:56;;;;;;;1.20;0.50;;;23.60;99.70;;;;;;5033926;28;20696;-60
2023/05/10 12:05:23;;;;;;;1.75;0.70;;;23.50;99.90;;;;;;5033995;28;20202;-58
2023/05/10 12:07:50;;;;;;;1.75;0.60;;;23.50;99.90;;;;;;5034311;28;20226;-59
2023/05/10 12:10:17;;;;;;;0.73;0.40;;;23.30;99.90;;;;;;5033893;28;20202;-59
2023/05/10 12:12:47;;;;;;;2.20;0.82;;;23.20;99.90;;;;;;5033613;28;20762;-58
2023/05/10 12:15:19;;;;;;;1.92;0.40;;;22.90;99.90;;;;;;5033491;28;20226;-59
2023/05/10 12:17:46;;;;;;;1.10;0.65;;;23.00;99.90;;;;;;5033910;28;20226;-59
2023/05/10 12:20:18;;;;;;;1.48;0.43;;;23.00;99.90;;;;;;5033750;28;20249;-59
2023/05/10 12:22:50;;;;;;;1.85;0.80;;;22.90;99.90;;;;;;5033575;28;20217;-59
2023/05/10 12:25:17;;;;;;;4.72;1.00;;;22.80;99.90;;;;;;5034555;28;20206;-59
2023/05/10 12:27:50;;;;;;;1.75;1.10;;;22.90;99.90;;;;;;5033887;28;20710;-61
2023/05/10 12:30:22;;;;;;;4.53;1.35;;;23.10;99.90;;;;;;5032947;28;20359;-59
2023/05/10 12:32:48;;;;;;;3.45;1.00;;;23.30;99.60;;;;;;5033676;28;20572;-60
2023/05/10 12:35:16;;;;;;;2.38;1.05;;;23.30;98.80;;;;;;5033242;28;20728;-60
2023/05/10 12:37:43;;;;;;;1.75;0.60;;;23.40;99.20;;;;;;5032871;28;20257;-59
2023/05/10 12:40:11;;;;;;;1.67;0.93;;;23.40;98.10;;;;;;5032989;28;20214;-61
2023/05/10 12:42:40;;;;;;;2.28;0.80;;;23.40;97.10;;;;;;5033107;28;20591;-60
2023/05/10 12:45:08;;;;;;;1.55;0.90;;;23.40;97.50;;;;;;5032865;28;20209;-59
2023/05/10 12:47:36;;;;;;;1.58;0.77;;;23.30;97.40;;;;;;5032928;28;20202;-60
2023/05/10 12:50:05;;;;;;;1.63;0.82;;;23.20;96.70;;;;;;5032816;28;20667;-59
2023/05/10 12:52:32;;;;;;;0.98;0.70;;;23.10;97.30;;;;;;5033363;28;20241;-59
2023/05/10 12:55:00;;;;;;;1.45;0.57;;;23.00;97.20;;;;;;5033296;28;20304;-59